NORTHEAST SUFFOLK  -  Winter Weather Advisory Winter Weather Advisory     Winter Weather Advisory Winter Weather Advisory        NORTHERN NASSAU  -  Winter Weather Advisory Winter Weather Advisory        NORTHWEST SUFFOLK  -  Winter Weather Advisory Winter Weather Advisory     Winter Weather Advisory Winter Weather Advisory        SOUTHEAST SUFFOLK  -  Winter Weather Advisory Winter Weather Advisory     Winter Weather Advisory Winter Weather Advisory        SOUTHERN NASSAU  -  Winter Weather Advisory Winter Weather Advisory        SOUTHWEST SUFFOLK  -  Winter Weather Advisory Winter Weather Advisory     Winter Weather Advisory Winter Weather Advisory      

Active alerts

Northern Nassau
  Details for Northern Nassau Winter Weather Advisory
Southern Nassau
  Details for Southern Nassau Winter Weather Advisory
Northwest Suffolk
  Details for Northwest Suffolk Winter Weather Advisory  +1 additional alert
Southwest Suffolk
  Details for Southwest Suffolk Winter Weather Advisory  +1 additional alert
Northeast Suffolk
  Details for Northeast Suffolk Winter Weather Advisory  +1 additional alert
Southeast Suffolk
  Details for Southeast Suffolk Winter Weather Advisory  +1 additional alert


WXM80 ListenWXM80 Stop

You find our weather info also at:

UK Metoffice

WeatherCloud

Weather Underground

Northeastern Weather Network

AWEKAS

Citizen Weather Observer Program (CWOP)

HAMweather, WeatherForYou, PWS Weather


Weather Underground History page Text

Daily Summary for May 7, 2017 Units:  Metric    English   Both
« Previous Day
Next Day »
Daily Weekly Monthly Yearly Custom
  High: Low: Average:
Temperature: 18.2 °C 8.8 °C 12.2 °C
Dew Point: 10.1 °C 4.3 °C 7.2 °C
Humidity: 87 % 49 % 73 %
Wind Speed: 13.8 km/h 0 km/h 5.6 km/h
Wind Gust: 27.4 km/h - -
Wind:- - WSW
Pressure: 1007 hPa 996.8 hPa -
Precipitation: 0.25 mm    
Historical Graphs
 
 
Tabular Data for May 7, 2017
Time Temperature Dew Point Pressure Wind Wind Speed Wind Gust Humidity Rainfall Rate (Hourly)
00:01 12.9 °C 10.1 °C 996.8 hPa WSW 3.5 km/h 7.4 km/h 83 % 0 mm
00:06 12.9 °C 9.9 °C 996.8 hPa SW 1.3 km/h 7.4 km/h 82 % 0 mm
00:11 12.9 °C 9.9 °C 996.8 hPa SW 4.5 km/h 5.6 km/h 82 % 0 mm
00:16 12.9 °C 9.9 °C 997.2 hPa WSW 3.9 km/h 5.6 km/h 82 % 0 mm
00:21 12.9 °C 10.1 °C 997.2 hPa WSW 0.2 km/h 1.9 km/h 83 % 0 mm
00:27 12.9 °C 10.1 °C 997.2 hPa WSW 0.8 km/h 3.7 km/h 83 % 0 mm
00:32 12.9 °C 10.1 °C 997.2 hPa SW 1.3 km/h 5.6 km/h 83 % 0 mm
00:37 12.8 °C 9.8 °C 997.2 hPa South 2.4 km/h 5.6 km/h 82 % 0 mm
00:42 12.8 °C 9.7 °C 997.2 hPa SW 4.3 km/h 11.1 km/h 81 % 0 mm
00:47 12.8 °C 9.7 °C 997.5 hPa WSW 5 km/h 7.4 km/h 81 % 0 mm
00:52 12.8 °C 9.4 °C 997.5 hPa SW 9.7 km/h 16.7 km/h 80 % 0 mm
00:57 12.8 °C 9.4 °C 997.5 hPa West 8.7 km/h 11.1 km/h 80 % 0 mm
01:02 12.8 °C 9.4 °C 997.5 hPa SSW 10.1 km/h 12.9 km/h 80 % 0 mm
01:07 12.8 °C 9.4 °C 997.5 hPa SW 8.5 km/h 16.1 km/h 80 % 0 mm
01:12 12.7 °C 9.2 °C 997.5 hPa SSW 4 km/h 9.7 km/h 79 % 0 mm
01:17 12.7 °C 9.1 °C 997.5 hPa SW 8.2 km/h 11.3 km/h 79 % 0 mm
01:22 12.7 °C 9.1 °C 997.9 hPa SSW 2.6 km/h 8 km/h 79 % 0 mm
01:27 12.6 °C 9 °C 997.9 hPa SW 10 km/h 20.4 km/h 79 % 0 mm
01:32 12.6 °C 9 °C 997.9 hPa WSW 6.3 km/h 11.3 km/h 79 % 0 mm
01:38 12.5 °C 8.9 °C 997.9 hPa SSW 8.9 km/h 13 km/h 79 % 0 mm
01:43 12.4 °C 8.8 °C 997.9 hPa SW 3.9 km/h 11.1 km/h 79 % 0 mm
01:48 12.3 °C 8.7 °C 997.9 hPa SSW 7.9 km/h 14.8 km/h 79 % 0 mm
01:53 12.2 °C 8.6 °C 997.9 hPa SW 1.9 km/h 5.6 km/h 79 % 0 mm
01:58 12.1 °C 8.7 °C 998.2 hPa SSW 5 km/h 11.1 km/h 80 % 0 mm
02:03 11.9 °C 8.6 °C 997.9 hPa SSW 5.8 km/h 13 km/h 80 % 0 mm
02:08 11.8 °C 8.5 °C 998.2 hPa West 5.3 km/h 11.1 km/h 80 % 0 mm
02:13 11.7 °C 8.6 °C 997.9 hPa SSW 4.2 km/h 9.3 km/h 81 % 0 mm
02:18 11.7 °C 8.5 °C 997.9 hPa SSW 4.2 km/h 13 km/h 81 % 0 mm
02:23 11.6 °C 8.4 °C 997.9 hPa SSW 5.6 km/h 11.3 km/h 81 % 0 mm
02:28 11.5 °C 8.6 °C 997.9 hPa WSW 2.1 km/h 6.4 km/h 82 % 0 mm
02:33 11.4 °C 8.5 °C 998.2 hPa SSW 3.1 km/h 3.7 km/h 82 % 0 mm
02:38 11.3 °C 8.4 °C 998.5 hPa SW 4.7 km/h 9.3 km/h 82 % 0 mm
02:43 11.3 °C 8.5 °C 998.2 hPa SSW 4.7 km/h 7.4 km/h 83 % 0 mm
02:48 11.2 °C 8.4 °C 998.5 hPa SW 5.1 km/h 8 km/h 83 % 0 mm
02:53 11.2 °C 8.4 °C 998.5 hPa WSW 2.4 km/h 13 km/h 83 % 0 mm
02:58 11.2 °C 8.4 °C 998.5 hPa SSW 3.7 km/h 9.3 km/h 83 % 0 mm
03:04 11.1 °C 8.5 °C 998.5 hPa South 3.1 km/h 11.1 km/h 84 % 0 mm
03:09 11.1 °C 8.5 °C 998.5 hPa SW 4.8 km/h 9.3 km/h 84 % 0 mm
03:14 11.1 °C 8.4 °C 998.5 hPa SW 0.5 km/h 5.6 km/h 84 % 0 mm
03:19 11.1 °C 8.5 °C 998.9 hPa South 1.8 km/h 5.6 km/h 84 % 0 mm
03:24 11.1 °C 8.5 °C 998.9 hPa SW 1.6 km/h 5.6 km/h 84 % 0 mm
03:29 11.1 °C 8.5 °C 998.9 hPa WSW 5.3 km/h 7.4 km/h 84 % 0 mm
03:34 11.1 °C 8.4 °C 998.9 hPa WSW 1.9 km/h 5.6 km/h 84 % 0 mm
03:39 11.1 °C 8.5 °C 998.9 hPa WSW 2.1 km/h 5.6 km/h 84 % 0 mm
03:44 11.1 °C 8.5 °C 998.9 hPa SSW 10.3 km/h 14.8 km/h 84 % 0 mm
03:49 11.2 °C 8.4 °C 998.9 hPa SSW 9.8 km/h 20.4 km/h 83 % 0 mm
03:54 11.3 °C 8.5 °C 998.9 hPa SSW 13.8 km/h 18.5 km/h 83 % 0 mm
03:59 11.3 °C 8.6 °C 999.2 hPa SW 1.6 km/h 14.8 km/h 83 % 0 mm
04:04 11.4 °C 8.6 °C 999.2 hPa SSW 6 km/h 11.3 km/h 83 % 0 mm
04:09 11.4 °C 8.4 °C 999.2 hPa West 7.6 km/h 13 km/h 82 % 0 mm
04:14 11.4 °C 8.5 °C 999.2 hPa SW 0.6 km/h 6.4 km/h 82 % 0 mm
04:19 11.4 °C 8.5 °C 999.2 hPa SW 2.1 km/h 9.7 km/h 82 % 0 mm
04:24 11.4 °C 8.5 °C 999.2 hPa SW 7.6 km/h 9.7 km/h 82 % 0 mm
04:29 11.4 °C 8.5 °C 999.2 hPa SSW 10.9 km/h 17.7 km/h 82 % 0 mm
04:34 11.4 °C 8.3 °C 999.2 hPa SW 6 km/h 11.1 km/h 81 % 0 mm
04:39 11.4 °C 8.3 °C 999.2 hPa WSW 7.2 km/h 11.3 km/h 81 % 0 mm
04:44 11.4 °C 8.3 °C 999.5 hPa WSW 0.6 km/h 5.6 km/h 81 % 0 mm
04:49 11.4 °C 8.3 °C 999.5 hPa WSW 2.3 km/h 13 km/h 81 % 0 mm
04:54 11.3 °C 8.2 °C 999.5 hPa WSW 4.5 km/h 11.1 km/h 81 % 0 mm
04:59 11.3 °C 8.2 °C 999.5 hPa WSW 0.6 km/h 5.6 km/h 81 % 0 mm
05:04 11.3 °C 8.3 °C 999.5 hPa SE 4.3 km/h 7.4 km/h 82 % 0 mm
05:10 11.2 °C 8.3 °C 999.5 hPa SW 5 km/h 7.4 km/h 82 % 0 mm
05:15 11.2 °C 8.2 °C 999.9 hPa SW 1.8 km/h 5.6 km/h 82 % 0 mm
05:20 11.1 °C 8.2 °C 999.9 hPa Calm     82 % 0 mm
05:25 11.1 °C 8.1 °C 999.9 hPa SW 0.3 km/h   82 % 0 mm
05:30 10.9 °C 8 °C 999.9 hPa SW 1.6 km/h 3.7 km/h 82 % 0 mm
05:35 10.9 °C 8.2 °C 999.9 hPa SW 2.1 km/h 3.7 km/h 83 % 0 mm
05:40 10.8 °C 8.1 °C 999.9 hPa Calm     83 % 0 mm
05:45 10.8 °C 8.2 °C 999.9 hPa SW 0.2 km/h 1.9 km/h 84 % 0 mm
05:50 10.7 °C 8.1 °C 999.9 hPa Calm   1.9 km/h 84 % 0 mm
05:55 10.6 °C 8 °C 1000.2 hPa SW 1.1 km/h 5.6 km/h 84 % 0 mm
06:00 10.6 °C 8.1 °C 999.9 hPa SW 1.1 km/h 4.8 km/h 85 % 0 mm
06:05 10.5 °C 8.1 °C 1000.2 hPa SW 0.5 km/h 5.6 km/h 85 % 0 mm
06:10 10.4 °C 8.2 °C 1000.2 hPa Calm   3.7 km/h 86 % 0 mm
06:15 10.4 °C 8.2 °C 1000.2 hPa SW 0.3 km/h 1.9 km/h 86 % 0 mm
06:20 10.3 °C 8.1 °C 1000.6 hPa Calm     86 % 0 mm
06:25 10.3 °C 8.3 °C 1000.6 hPa SW 0.5 km/h 1.9 km/h 87 % 0 mm
06:30 10.4 °C 8.3 °C 1000.9 hPa SW 0.5 km/h 1.9 km/h 87 % 0 mm
06:35 10.5 °C 8.4 °C 1000.9 hPa SW 0.3 km/h 1.6 km/h 87 % 0 mm
06:40 10.7 °C 8.6 °C 1000.9 hPa Calm     87 % 0 mm
06:45 10.9 °C 8.6 °C 1001.2 hPa SSE 1.1 km/h 5.6 km/h 86 % 0 mm
06:50 11.1 °C 8.8 °C 1001.2 hPa SSE 0.3 km/h 1.9 km/h 86 % 0 mm
06:55 11.3 °C 9 °C 1001.2 hPa South 1.6 km/h 5.6 km/h 86 % 0 mm
07:00 11.5 °C 9.1 °C 1001.2 hPa Calm   1.9 km/h 85 % 0 mm
07:05 11.8 °C 9 °C 1001.2 hPa SW 2.7 km/h 5.6 km/h 83 % 0 mm
07:11 12.1 °C 8.9 °C 1001.6 hPa SSW 4.8 km/h 7.4 km/h 81 % 0 mm
07:16 12.3 °C 8.9 °C 1001.6 hPa SW 3.2 km/h 11.3 km/h 80 % 0 mm
07:21 12.5 °C 8.6 °C 1001.6 hPa SW 4.8 km/h 12.9 km/h 77 % 0 mm
07:26 12.7 °C 8.6 °C 1001.6 hPa SW 3.2 km/h 11.3 km/h 76 % 0 mm
07:31 12.8 °C 8.3 °C 1001.6 hPa SW 4.8 km/h 17.7 km/h 74 % 0 mm
07:36 12.8 °C 7.7 °C 1001.6 hPa SW 8 km/h 19.3 km/h 71 % 0 mm
07:41 12.8 °C 7.7 °C 1001.9 hPa SSW 10 km/h 16.7 km/h 71 % 0 mm
07:46 12.8 °C 7.7 °C 1001.9 hPa SW 4.8 km/h 11.3 km/h 71 % 0 mm
07:51 12.9 °C 8 °C 1001.9 hPa SW 3.2 km/h 8 km/h 72 % 0 mm
08:01 13.1 °C 7.6 °C 1002.3 hPa SSW 8.7 km/h 14.5 km/h 69 % 0 mm
08:06 13.2 °C 7.2 °C 1002.3 hPa SW 11.3 km/h 27.4 km/h 67 % 0 mm
08:11 13.2 °C 7.2 °C 1001.9 hPa SW 11.3 km/h 24.1 km/h 67 % 0 mm
08:16 13.3 °C 7.3 °C 1001.9 hPa SW 4.8 km/h 14.5 km/h 67 % 0 mm
08:21 13.3 °C 7.1 °C 1001.9 hPa SSW 4.8 km/h 20.9 km/h 66 % 0 mm
08:26 13.4 °C 7.2 °C 1001.9 hPa SSW 4.8 km/h 14.5 km/h 66 % 0 mm
08:31 13.4 °C 7.4 °C 1001.9 hPa SW 8 km/h 12.9 km/h 67 % 0 mm
08:36 13.4 °C 7.2 °C 1002.3 hPa West 3.5 km/h 16.7 km/h 66 % 0 mm
08:41 13.4 °C 7.2 °C 1002.3 hPa West 10.1 km/h 14.8 km/h 66 % 0 mm
08:46 13.5 °C 7.1 °C 1002.3 hPa WSW 9.7 km/h 22.5 km/h 65 % 0 mm
08:51 13.6 °C 7.1 °C 1002.3 hPa SW 9.7 km/h 24.1 km/h 65 % 0 mm
08:56 13.6 °C 7.2 °C 1002.3 hPa SW 9.7 km/h 19.3 km/h 65 % 0 mm
09:01 13.8 °C 7.6 °C 1002.3 hPa WSW 10 km/h 17.7 km/h 66 % 0 mm
09:06 13.9 °C 6.9 °C 1002.3 hPa SSW 8.7 km/h 18.5 km/h 63 % 0 mm
09:11 14.1 °C 6.9 °C 1002.3 hPa SSW 11.3 km/h 19.3 km/h 62 % 0 mm
09:16 14.2 °C 7.2 °C 1002.3 hPa SW 4.8 km/h 19.3 km/h 63 % 0 mm
09:21 14.2 °C 7.3 °C 1002.3 hPa SSW 11.3 km/h 20.9 km/h 63 % 0 mm
09:26 14.3 °C 6.9 °C 1002.3 hPa SW 9.7 km/h 14.5 km/h 61 % 0 mm
09:31 14.6 °C 7.2 °C 1002.3 hPa SSW 8 km/h 13 km/h 61 % 0 mm
09:36 14.8 °C 8.3 °C 1002.3 hPa SSW 3.1 km/h 9.3 km/h 65 % 0 mm
09:41 15 °C 7.6 °C 1002.3 hPa SW 7.4 km/h 14.5 km/h 61 % 0 mm
09:46 15.1 °C 7.6 °C 1002.3 hPa SW 8 km/h 14.5 km/h 61 % 0 mm
09:51 15 °C 7.3 °C 1002.6 hPa SW 3.1 km/h 5.6 km/h 60 % 0 mm
09:56 15.1 °C 7.6 °C 1002.6 hPa SW 5.5 km/h 9.7 km/h 61 % 0 mm
10:01 15.4 °C 8.2 °C 1002.6 hPa WSW 5.1 km/h 9.3 km/h 62 % 0 mm
10:06 15.9 °C 8.2 °C 1002.3 hPa South 4 km/h 5.6 km/h 60 % 0 mm
10:11 16.5 °C 8.4 °C 1002.6 hPa West 2.4 km/h 5.6 km/h 59 % 0 mm
10:16 16.9 °C 8.1 °C 1002.3 hPa SE 6.9 km/h 9.3 km/h 56 % 0 mm
10:21 17.2 °C 7.6 °C 1002.6 hPa SSW 6 km/h 11.3 km/h 53 % 0 mm
10:26 17.3 °C 7.9 °C 1002.6 hPa SE 8.4 km/h 16.7 km/h 54 % 0 mm
10:31 17.4 °C 8.1 °C 1002.6 hPa SSW 6.4 km/h 11.1 km/h 54 % 0 mm
10:36 17.8 °C 8.1 °C 1002.6 hPa South 5 km/h 7.4 km/h 53 % 0 mm
10:41 18.2 °C 9.3 °C 1002.6 hPa ESE 2.7 km/h 8 km/h 56 % 0 mm
10:46 18.2 °C 7.6 °C 1002.6 hPa SW 11.3 km/h 16.7 km/h 50 % 0 mm
10:51 17.8 °C 6.9 °C 1002.6 hPa SE 3.7 km/h 12.9 km/h 49 % 0 mm
10:56 17.3 °C 7.1 °C 1002.6 hPa SSW 6.8 km/h 9.7 km/h 51 % 0 mm
11:01 17.1 °C 7.9 °C 1002.6 hPa SE 6.1 km/h 12.9 km/h 55 % 0 mm
11:06 16.7 °C 6.8 °C 1002.9 hPa SW 8.4 km/h 12.9 km/h 52 % 0 mm
11:11 16.4 °C 6.8 °C 1002.9 hPa SW 8.2 km/h 16.7 km/h 53 % 0 mm
11:16 16.1 °C 6.4 °C 1002.9 hPa SSW 11.7 km/h 16.1 km/h 53 % 0 mm
11:22 15.8 °C 6.5 °C 1002.9 hPa WSW 4.8 km/h 20.9 km/h 54 % 0 mm
11:27 15.4 °C 6.4 °C 1002.9 hPa SW 5.1 km/h 18.5 km/h 55 % 0 mm
11:32 15.1 °C 6.1 °C 1002.9 hPa SW 12.7 km/h 18.5 km/h 55 % 0 mm
11:37 14.7 °C 6 °C 1002.9 hPa West 5.8 km/h 13 km/h 56 % 0 mm
11:42 14.4 °C 6.5 °C 1002.9 hPa West 4.8 km/h 13 km/h 59 % 0 mm
11:47 14.2 °C 6.3 °C 1002.9 hPa SSW 6 km/h 11.1 km/h 59 % 0 mm
11:48 14.2 °C 6.3 °C 1002.9 hPa WSW 6.1 km/h 11.1 km/h 59 % 0 mm
11:53 14 °C 6.1 °C 1002.9 hPa WSW 3.9 km/h 13 km/h 59 % 0 mm
11:58 14.1 °C 6.4 °C 1002.9 hPa West 5.8 km/h 9.3 km/h 60 % 0 mm
12:03 14.3 °C 6.4 °C 1002.9 hPa NW 5.1 km/h 9.3 km/h 59 % 0 mm
12:08 14.3 °C 6.4 °C 1002.9 hPa SW 6.1 km/h 11.1 km/h 59 % 0 mm
12:13 14.3 °C 6.4 °C 1002.6 hPa WSW 8.4 km/h 13 km/h 59 % 0 mm
12:18 14.3 °C 6.4 °C 1002.9 hPa WNW 3.5 km/h 5.6 km/h 59 % 0 mm
12:23 14.2 °C 6.6 °C 1002.9 hPa West 1.1 km/h 7.4 km/h 60 % 0 mm
12:28 14.2 °C 6.3 °C 1002.6 hPa WSW 9.5 km/h 13 km/h 59 % 0 mm
12:33 14.1 °C 6.2 °C 1002.6 hPa SW 9.3 km/h 14.8 km/h 59 % 0 mm
12:38 14.1 °C 6.4 °C 1002.6 hPa WSW 1.4 km/h 4.8 km/h 60 % 0 mm
12:43 14.1 °C 6.7 °C 1002.9 hPa WSW 5.1 km/h 11.3 km/h 61 % 0 mm
12:48 14.1 °C 6.9 °C 1002.6 hPa SW 3.5 km/h 9.3 km/h 62 % 0 mm
12:53 14 °C 6.8 °C 1002.6 hPa WSW 3.1 km/h 11.1 km/h 62 % 0 mm
12:58 14 °C 6.8 °C 1002.6 hPa SSW 3.4 km/h 9.3 km/h 62 % 0 mm
13:03 14 °C 7.3 °C 1002.3 hPa SSW 3.7 km/h 7.4 km/h 64 % 0 mm
13:08 14.1 °C 7.1 °C 1002.3 hPa SW 5.5 km/h 11.1 km/h 63 % 0 mm
13:13 14.1 °C 7.2 °C 1002.6 hPa SW 4.5 km/h 9.3 km/h 63 % 0 mm
13:18 14.1 °C 7.2 °C 1002.6 hPa SSW 3.9 km/h 7.4 km/h 63 % 0 mm
13:23 14 °C 7.1 °C 1002.6 hPa South 2.7 km/h 9.3 km/h 63 % 0 mm
13:28 13.9 °C 7.2 °C 1002.6 hPa SSW 2.6 km/h 6.4 km/h 64 % 0 mm
13:33 13.8 °C 7.1 °C 1002.3 hPa SSW 4.5 km/h 12.9 km/h 64 % 0 mm
13:39 13.8 °C 7.1 °C 1002.6 hPa SW 1.9 km/h 5.6 km/h 64 % 0 mm
13:44 13.7 °C 6.8 °C 1002.6 hPa SW 3.7 km/h 9.3 km/h 63 % 0 mm
13:49 13.7 °C 7 °C 1002.6 hPa SSW 6.1 km/h 11.1 km/h 64 % 0 mm
13:54 13.6 °C 6.7 °C 1002.6 hPa South 2.6 km/h 5.6 km/h 63 % 0 mm
13:59 13.6 °C 6.4 °C 1002.6 hPa SW 7.9 km/h 19.3 km/h 62 % 0 mm
14:04 13.5 °C 6.3 °C 1002.6 hPa SSW 2.1 km/h 5.6 km/h 62 % 0 mm
14:09 13.4 °C 6.3 °C 1002.6 hPa SSW 8 km/h 14.8 km/h 62 % 0 mm
14:14 13.5 °C 6.6 °C 1002.6 hPa SSW 6.8 km/h 9.3 km/h 63 % 0 mm
14:19 13.6 °C 6.7 °C 1002.6 hPa WSW 2.1 km/h 8 km/h 63 % 0 mm
14:24 13.9 °C 7.2 °C 1002.6 hPa SW 1.4 km/h 7.4 km/h 64 % 0 mm
14:29 14.2 °C 7.2 °C 1002.6 hPa SSE 3.9 km/h 9.3 km/h 63 % 0 mm
14:34 14.4 °C 6.8 °C 1002.6 hPa SSW 5 km/h 8 km/h 60 % 0 mm
14:35 14.5 °C 6.8 °C 1002.3 hPa WSW 5.5 km/h 7.4 km/h 60 % 0 mm
14:41 14.7 °C 6.8 °C 1002.3 hPa SW 4.2 km/h 13 km/h 59 % 0 mm
14:46 14.8 °C 6.9 °C 1002.3 hPa SSW 7.4 km/h 13 km/h 59 % 0 mm
14:51 14.9 °C 6.4 °C 1002.3 hPa SW 7.4 km/h 11.1 km/h 57 % 0 mm
14:56 14.8 °C 6.1 °C 1002.3 hPa WSW 6.9 km/h 9.7 km/h 56 % 0 mm
15:01 14.8 °C 6.3 °C 1002.3 hPa WSW 7.1 km/h 13 km/h 57 % 0 mm
15:06 14.7 °C 6.2 °C 1002.3 hPa SW 5 km/h 12.9 km/h 57 % 0 mm
15:11 14.6 °C 6.4 °C 1002.3 hPa WSW 8.7 km/h 16.7 km/h 58 % 0 mm
15:16 14.3 °C 5.9 °C 1002.3 hPa SSW 11.4 km/h 18.5 km/h 57 % 0 mm
15:21 14.2 °C 6.3 °C 1002.3 hPa WSW 4 km/h 14.8 km/h 59 % 0 mm
15:26 14 °C 6.1 °C 1002.3 hPa SSW 10.6 km/h 18.5 km/h 59 % 0 mm
15:31 13.8 °C 6.2 °C 1002.3 hPa SW 10.9 km/h 18.5 km/h 60 % 0 mm
15:36 13.7 °C 6.1 °C 1002.3 hPa SW 5.3 km/h 11.1 km/h 60 % 0 mm
15:41 13.6 °C 6.4 °C 1002.3 hPa SW 1.8 km/h 5.6 km/h 62 % 0 mm
15:46 13.6 °C 6.4 °C 1002.3 hPa WSW 4 km/h 5.6 km/h 62 % 0 mm
15:47 13.6 °C 6.4 °C 1002.3 hPa SW 6 km/h 17.7 km/h 62 % 0 mm
15:52 13.5 °C 6.6 °C 1002.3 hPa WSW 5 km/h 9.3 km/h 63 % 0 mm
15:57 13.5 °C 6.6 °C 1002.3 hPa WSW 6.6 km/h 11.3 km/h 63 % 0 mm
16:02 13.6 °C 6.7 °C 1002.3 hPa SW 4 km/h 9.3 km/h 63 % 0 mm
16:07 13.6 °C 6.7 °C 1002.3 hPa WSW 2.1 km/h 5.6 km/h 63 % 0 mm
16:12 13.7 °C 6.7 °C 1002.3 hPa WSW 4 km/h 9.3 km/h 63 % 0 mm
16:17 13.7 °C 6.8 °C 1002.3 hPa SW 10.6 km/h 19.3 km/h 63 % 0 mm
16:22 13.6 °C 7.8 °C 1002.9 hPa SSW 8.2 km/h 18.5 km/h 68 % 0 mm
16:27 13.3 °C 7.7 °C 1002.9 hPa WSW 9 km/h 18.5 km/h 69 % 0.25 mm
16:32 12.8 °C 7.4 °C 1002.9 hPa WSW 5.5 km/h 9.3 km/h 70 % 0.25 mm
16:37 12.5 °C 7.6 °C 1002.9 hPa WSW 3.7 km/h 11.3 km/h 72 % 0.25 mm
16:42 12.3 °C 7.6 °C 1002.6 hPa Calm   1.9 km/h 73 % 0.25 mm
16:48 12.1 °C 7.6 °C 1002.6 hPa WSW 0.2 km/h 1.9 km/h 74 % 0.25 mm
16:53 11.9 °C 7.8 °C 1002.9 hPa West 2.1 km/h 9.3 km/h 76 % 0.25 mm
16:58 11.7 °C 7.6 °C 1003.3 hPa WSW 5.6 km/h 18.5 km/h 76 % 0.25 mm
17:03 11.4 °C 7.1 °C 1002.9 hPa WSW 6.9 km/h 20.4 km/h 75 % 0.25 mm
17:08 11.2 °C 7.2 °C 1002.9 hPa WSW 7.2 km/h 13 km/h 76 % 0.25 mm
17:13 11.1 °C 7.2 °C 1002.9 hPa West 4.8 km/h 11.1 km/h 77 % 0.25 mm
17:18 11.1 °C 7.4 °C 1002.9 hPa NW 9 km/h 14.8 km/h 78 % 0.25 mm
17:23 11 °C 7.3 °C 1002.9 hPa WNW 5.3 km/h 20.4 km/h 78 % 0.25 mm
17:27 11 °C 7.5 °C 1002.9 hPa WNW 5.5 km/h 11.1 km/h 79 % 0.25 mm
17:32 10.9 °C 7.4 °C 1002.9 hPa WSW 4.7 km/h 14.8 km/h 79 % 0 mm
17:37 10.9 °C 7.6 °C 1003.3 hPa West 4.8 km/h 14.8 km/h 80 % 0 mm
17:42 10.9 °C 7.6 °C 1003.3 hPa WSW 9.2 km/h 14.8 km/h 80 % 0 mm
17:47 10.9 °C 7.4 °C 1003.3 hPa WSW 8.9 km/h 16.7 km/h 79 % 0 mm
17:52 11 °C 7.5 °C 1003.6 hPa WSW 4.2 km/h 9.3 km/h 79 % 0 mm
17:57 11.1 °C 7.6 °C 1003.6 hPa WNW 7.7 km/h 14.8 km/h 79 % 0 mm
18:02 11.1 °C 7.6 °C 1003.6 hPa WSW 5 km/h 9.7 km/h 79 % 0 mm
18:07 11.1 °C 7.4 °C 1003.6 hPa WNW 7.9 km/h 16.7 km/h 78 % 0 mm
18:12 11.1 °C 7.4 °C 1003.6 hPa West 8 km/h 18.5 km/h 78 % 0 mm
18:17 11.1 °C 7.4 °C 1003.6 hPa NW 7.9 km/h 18.5 km/h 78 % 0 mm
18:22 11 °C 7.3 °C 1003.9 hPa West 8.7 km/h 16.7 km/h 78 % 0 mm
18:27 10.9 °C 7.3 °C 1003.9 hPa West 5.6 km/h 20.4 km/h 78 % 0 mm
18:32 10.8 °C 6.9 °C 1003.9 hPa NW 10 km/h 16.1 km/h 77 % 0 mm
18:37 10.7 °C 7.1 °C 1003.9 hPa West 7.4 km/h 13 km/h 78 % 0 mm
18:42 10.7 °C 7.2 °C 1003.9 hPa WNW 10.6 km/h 18.5 km/h 79 % 0 mm
18:47 10.6 °C 7.2 °C 1003.9 hPa NW 7.6 km/h 13 km/h 80 % 0 mm
18:52 10.4 °C 7.5 °C 1004.3 hPa WSW 6.1 km/h 12.9 km/h 82 % 0 mm
18:54 10.4 °C 7.4 °C 1003.9 hPa WNW 3.5 km/h 9.3 km/h 82 % 0 mm
18:59 10.3 °C 7.3 °C 1003.9 hPa West 4.8 km/h 11.1 km/h 82 % 0 mm
19:04 10.1 °C 7.3 °C 1004.3 hPa WSW 3.7 km/h 11.1 km/h 83 % 0 mm
19:09 10.1 °C 7.3 °C 1004.3 hPa North 7.6 km/h 18.5 km/h 83 % 0 mm
19:14 9.9 °C 7.2 °C 1004.6 hPa WSW 12.6 km/h 18.5 km/h 83 % 0 mm
19:19 9.9 °C 6.6 °C 1004.6 hPa WNW 7.1 km/h 11.3 km/h 80 % 0 mm
19:24 9.8 °C 6.4 °C 1004.6 hPa NW 6.8 km/h 9.7 km/h 79 % 0 mm
19:29 9.8 °C 6.3 °C 1004.6 hPa WNW 6.3 km/h 11.1 km/h 79 % 0 mm
19:34 9.7 °C 6.3 °C 1004.6 hPa WNW 3.7 km/h 9.7 km/h 79 % 0 mm
19:39 9.7 °C 6 °C 1005 hPa NW 5.8 km/h 20.4 km/h 78 % 0 mm
19:44 9.6 °C 5.9 °C 1005 hPa West 8.2 km/h 9.3 km/h 78 % 0 mm
19:49 9.6 °C 5.9 °C 1005 hPa NW 9.7 km/h 18.5 km/h 78 % 0 mm
19:54 9.6 °C 5.9 °C 1005 hPa SW 3.9 km/h 14.8 km/h 78 % 0 mm
19:59 9.5 °C 6.1 °C 1005.3 hPa NW 5.3 km/h 9.3 km/h 79 % 0 mm
20:04 9.5 °C 6.1 °C 1005.3 hPa NW 4 km/h 14.8 km/h 79 % 0 mm
20:10 9.4 °C 6 °C 1005.3 hPa WNW 4.2 km/h 7.4 km/h 79 % 0 mm
20:15 9.4 °C 6 °C 1005.3 hPa WSW 8.4 km/h 9.3 km/h 79 % 0 mm
20:20 9.4 °C 5.7 °C 1005.3 hPa NNW 6.4 km/h 9.3 km/h 78 % 0 mm
20:25 9.4 °C 5.6 °C 1005.3 hPa West 6.8 km/h 16.7 km/h 77 % 0 mm
20:30 9.3 °C 5.5 °C 1005.6 hPa WNW 4.5 km/h 13 km/h 77 % 0 mm
20:35 9.3 °C 5.5 °C 1005.6 hPa West 10.1 km/h 18.5 km/h 77 % 0 mm
20:40 9.3 °C 5.5 °C 1006 hPa West 3.9 km/h 13 km/h 77 % 0 mm
20:45 9.3 °C 5.5 °C 1006 hPa NW 5.6 km/h 16.7 km/h 77 % 0 mm
20:50 9.3 °C 5.5 °C 1006.3 hPa WSW 6.3 km/h 16.7 km/h 77 % 0 mm
20:55 9.3 °C 5.3 °C 1006.3 hPa WSW 8.4 km/h 18.5 km/h 76 % 0 mm
21:00 9.4 °C 5.4 °C 1006.3 hPa WNW 4.8 km/h 7.4 km/h 76 % 0 mm
21:05 9.4 °C 5.4 °C 1006.3 hPa West 4.3 km/h 12.9 km/h 76 % 0 mm
21:10 9.4 °C 5.4 °C 1006.7 hPa NW 6.1 km/h 14.8 km/h 76 % 0 mm
21:15 9.4 °C 5.2 °C 1006.7 hPa West 8.7 km/h 16.1 km/h 75 % 0 mm
21:20 9.4 °C 5.2 °C 1006.7 hPa WSW 10.1 km/h 20.4 km/h 75 % 0 mm
21:25 9.4 °C 5.2 °C 1006.7 hPa West 6.1 km/h 9.3 km/h 75 % 0 mm
21:30 9.3 °C 5.1 °C 1006.7 hPa West 7.4 km/h 18.5 km/h 75 % 0 mm
21:35 9.3 °C 5.3 °C 1006.7 hPa WNW 7.4 km/h 16.1 km/h 76 % 0 mm
21:40 9.3 °C 5.3 °C 1006.7 hPa WSW 5.1 km/h 18.5 km/h 76 % 0 mm
21:45 9.3 °C 5.3 °C 1006.7 hPa WNW 4.8 km/h 13 km/h 76 % 0 mm
21:50 9.3 °C 5.1 °C 1006.7 hPa WNW 5.5 km/h 14.8 km/h 75 % 0 mm
21:55 9.3 °C 5.3 °C 1006.7 hPa WSW 4.7 km/h 11.1 km/h 76 % 0 mm
22:00 9.3 °C 5.1 °C 1006.7 hPa SSW 7.9 km/h 7.9 km/h 75 % 0 mm
22:05 9.3 °C 5.1 °C 1006.7 hPa West 4.2 km/h 7.4 km/h 75 % 0 mm
22:10 9.3 °C 5.1 °C 1007 hPa WNW 9 km/h 11.1 km/h 75 % 0 mm
22:16 9.2 °C 4.8 °C 1007 hPa West 8 km/h 16.1 km/h 74 % 0 mm
22:21 9.2 °C 4.8 °C 1007 hPa WSW 13.7 km/h 16.1 km/h 74 % 0 mm
22:26 9.2 °C 4.8 °C 1007 hPa WSW 9.7 km/h 25.7 km/h 74 % 0 mm
22:31 9.2 °C 4.8 °C 1007 hPa West 11.3 km/h 24.1 km/h 74 % 0 mm
22:36 9.2 °C 4.8 °C 1007 hPa West 4.8 km/h 12.9 km/h 74 % 0 mm
22:41 9.2 °C 4.8 °C 1007 hPa WSW 9.7 km/h 19.3 km/h 74 % 0 mm
22:46 9.2 °C 4.8 °C 1007 hPa West 8 km/h 20.9 km/h 74 % 0 mm
22:51 9.1 °C 4.7 °C 1006.7 hPa West 12.9 km/h 16.1 km/h 74 % 0 mm
22:56 9.1 °C 4.9 °C 1006.7 hPa West 4.8 km/h 19.3 km/h 75 % 0 mm
23:01 9.1 °C 4.7 °C 1006.7 hPa West 4.7 km/h 9.3 km/h 74 % 0 mm
23:06 9.1 °C 4.7 °C 1006.7 hPa WSW 5.3 km/h 14.8 km/h 74 % 0 mm
23:11 9.1 °C 4.8 °C 1006.7 hPa NW 8.5 km/h 13 km/h 75 % 0 mm
23:16 9 °C 4.8 °C 1006.7 hPa West 8.4 km/h 18.5 km/h 75 % 0 mm
23:21 8.9 °C 4.7 °C 1006.7 hPa West 9.7 km/h 18.5 km/h 75 % 0 mm
23:26 8.9 °C 4.7 °C 1006.7 hPa West 8 km/h 16.7 km/h 75 % 0 mm
23:31 8.9 °C 4.7 °C 1006.7 hPa WSW 5.5 km/h 14.8 km/h 75 % 0 mm
23:36 8.9 °C 4.7 °C 1006.7 hPa West 7.6 km/h 18.5 km/h 75 % 0 mm
23:41 8.8 °C 4.4 °C 1006.7 hPa WNW 7.4 km/h 16.1 km/h 74 % 0 mm
23:46 8.8 °C 4.3 °C 1006.7 hPa WSW 13 km/h 20.4 km/h 73 % 0 mm
23:51 8.8 °C 4.3 °C 1006.7 hPa NNW 10.3 km/h 18.5 km/h 73 % 0 mm
23:56 8.9 °C 4.5 °C 1006.7 hPa WNW 6.3 km/h 13 km/h 74 % 0 mm
Crab Meadow Weather
Compliments of Weather Underground - 3 mb

Script developed by  Jim McMurry - jmcmurry@mwt.net Adapted for the template by  Wim van der Kuil - Leuven-Template.eu

Weather Terms: Degree Day - Gauges the amount of heating or cooling needed for a building using 65 degrees as a baseline. To compute degree days, the average temperature for a day is taken and referenced to 65. An average temperature of 50 yields 15 heating degree days, while an average temperature of 75 would yield 10 cooling degree days.